Wetterdaten: Woche 23.07.07 - 29.07.07 (KW30)
Datum Zeit Temperatur Luftfeuchte Luftdruck Niederschlag
23.07.2007 00:00 13,4 C 81 % 0 hPa 0,0 l/m
23.07.2007 01:00 13,3 C 83 % 0 hPa 0,0 l/m
23.07.2007 02:00 12,8 C 84 % 0 hPa 0,0 l/m
23.07.2007 03:00 12,1 C 86 % 0 hPa 0,0 l/m
23.07.2007 04:00 11,5 C 89 % 0 hPa 0,0 l/m
23.07.2007 05:00 11,3 C 91 % 0 hPa 0,0 l/m
23.07.2007 06:00 11,5 C 93 % 0 hPa 0,0 l/m
23.07.2007 07:00 12,9 C 92 % 0 hPa 0,0 l/m
23.07.2007 08:00 15,8 C 75 % 0 hPa 0,0 l/m
23.07.2007 09:00 18,8 C 62 % 0 hPa 0,0 l/m
23.07.2007 10:00 21,7 C 51 % 0 hPa 0,0 l/m
23.07.2007 11:00 25,1 C 34 % 0 hPa 0,0 l/m
23.07.2007 12:00 27,1 C 29 % 0 hPa 0,0 l/m
23.07.2007 13:00 28,5 C 24 % 0 hPa 0,0 l/m
23.07.2007 14:00 28,9 C 24 % 0 hPa 0,0 l/m
23.07.2007 15:00 28,6 C 26 % 0 hPa 0,0 l/m
23.07.2007 16:00 27,3 C 30 % 0 hPa 0,0 l/m
23.07.2007 17:00 25,8 C 37 % 0 hPa 0,0 l/m
23.07.2007 18:00 23,9 C 48 % 0 hPa 0,0 l/m
23.07.2007 19:00 21,0 C 55 % 0 hPa 0,0 l/m
23.07.2007 20:00 17,3 C 78 % 0 hPa 1,0 l/m
23.07.2007 21:00 16,3 C 84 % 0 hPa 6,0 l/m
23.07.2007 22:00 15,8 C 91 % 0 hPa 3,0 l/m
23.07.2007 23:00 15,5 C 95 % 0 hPa 5,0 l/m
24.07.2007 00:00 14,8 C 96 % 0 hPa 2,0 l/m
24.07.2007 01:00 14,5 C 96 % 0 hPa 0,0 l/m
24.07.2007 02:00 14,1 C 96 % 0 hPa 0,0 l/m
24.07.2007 03:00 13,5 C 96 % 0 hPa 0,0 l/m
24.07.2007 04:00 13,1 C 95 % 0 hPa 0,0 l/m
24.07.2007 05:00 12,5 C 95 % 0 hPa 0,0 l/m
24.07.2007 06:00 12,0 C 96 % 0 hPa 0,0 l/m
24.07.2007 07:00 13,5 C 97 % 0 hPa 0,0 l/m
24.07.2007 08:00 15,4 C 90 % 0 hPa 0,0 l/m
24.07.2007 09:00 16,4 C 72 % 0 hPa 0,0 l/m
24.07.2007 10:00 17,9 C 59 % 0 hPa 0,0 l/m
24.07.2007 11:00 18,2 C 55 % 0 hPa 0,0 l/m
24.07.2007 12:00 18,1 C 55 % 0 hPa 0,0 l/m
24.07.2007 13:00 17,8 C 60 % 0 hPa 0,0 l/m
24.07.2007 14:00 19,3 C 50 % 0 hPa 0,0 l/m
24.07.2007 15:00 18,6 C 51 % 0 hPa 0,0 l/m
24.07.2007 16:00 18,5 C 49 % 0 hPa 0,0 l/m
24.07.2007 17:00 18,7 C 49 % 0 hPa 0,0 l/m
24.07.2007 18:00 16,9 C 65 % 0 hPa 1,0 l/m
24.07.2007 19:00 15,0 C 83 % 0 hPa 0,0 l/m
24.07.2007 20:00 14,7 C 83 % 0 hPa 0,0 l/m
24.07.2007 21:00 14,0 C 82 % 0 hPa 0,0 l/m
24.07.2007 22:00 13,4 C 85 % 0 hPa 0,0 l/m
24.07.2007 23:00 13,1 C 85 % 0 hPa 0,0 l/m
25.07.2007 00:00 12,9 C 83 % 0 hPa 0,0 l/m
25.07.2007 01:00 12,7 C 87 % 0 hPa 0,0 l/m
25.07.2007 02:00 12,8 C 91 % 0 hPa 0,0 l/m
25.07.2007 03:00 12,6 C 92 % 0 hPa 0,0 l/m
25.07.2007 04:00 12,2 C 92 % 0 hPa 0,0 l/m
25.07.2007 05:00 11,2 C 92 % 0 hPa 0,0 l/m
25.07.2007 06:00 11,1 C 94 % 0 hPa 0,0 l/m
25.07.2007 07:00 12,4 C 96 % 0 hPa 0,0 l/m
25.07.2007 08:00 14,4 C 92 % 0 hPa 0,0 l/m
25.07.2007 09:00 16,6 C 75 % 0 hPa 0,0 l/m
25.07.2007 10:00 18,8 C 54 % 0 hPa 0,0 l/m
25.07.2007 11:00 20,0 C 44 % 0 hPa 0,0 l/m
25.07.2007 12:00 20,8 C 44 % 0 hPa 0,0 l/m
25.07.2007 13:00 21,5 C 42 % 0 hPa 0,0 l/m
25.07.2007 14:00 22,1 C 39 % 0 hPa 0,0 l/m
25.07.2007 15:00 22,6 C 36 % 0 hPa 0,0 l/m
25.07.2007 16:00 23,0 C 34 % 0 hPa 0,0 l/m
25.07.2007 17:00 22,1 C 38 % 0 hPa 0,0 l/m
25.07.2007 18:00 22,8 C 37 % 0 hPa 0,0 l/m
25.07.2007 19:00 22,6 C 36 % 0 hPa 0,0 l/m
25.07.2007 20:00 20,2 C 49 % 0 hPa 0,0 l/m
25.07.2007 21:00 17,6 C 60 % 0 hPa 0,0 l/m
25.07.2007 22:00 15,8 C 68 % 0 hPa 0,0 l/m
25.07.2007 23:00 14,9 C 73 % 0 hPa 0,0 l/m
26.07.2007 00:00 13,9 C 78 % 0 hPa 0,0 l/m
26.07.2007 01:00 13,3 C 81 % 0 hPa 0,0 l/m
26.07.2007 02:00 12,8 C 84 % 0 hPa 0,0 l/m
26.07.2007 03:00 12,5 C 85 % 0 hPa 0,0 l/m
26.07.2007 04:00 11,9 C 87 % 0 hPa 0,0 l/m
26.07.2007 05:00 11,3 C 88 % 0 hPa 0,0 l/m
26.07.2007 06:00 10,9 C 90 % 0 hPa 0,0 l/m
26.07.2007 07:00 12,9 C 90 % 0 hPa 0,0 l/m
26.07.2007 08:00 16,0 C 76 % 0 hPa 0,0 l/m
26.07.2007 09:00 18,3 C 65 % 0 hPa 0,0 l/m
26.07.2007 10:00 21,3 C 50 % 0 hPa 0,0 l/m
26.07.2007 11:00 23,3 C 39 % 0 hPa 0,0 l/m
26.07.2007 12:00 24,1 C 34 % 0 hPa 0,0 l/m
26.07.2007 13:00 24,9 C 33 % 0 hPa 0,0 l/m
26.07.2007 14:00 25,9 C 32 % 0 hPa 0,0 l/m
26.07.2007 15:00 26,5 C 30 % 0 hPa 0,0 l/m
26.07.2007 16:00 27,0 C 26 % 0 hPa 0,0 l/m
26.07.2007 17:00 27,5 C 23 % 0 hPa 0,0 l/m
26.07.2007 18:00 27,0 C 23 % 0 hPa 0,0 l/m
26.07.2007 19:00 25,4 C 29 % 0 hPa 0,0 l/m
26.07.2007 20:00 22,7 C 38 % 0 hPa 0,0 l/m
26.07.2007 21:00 20,1 C 47 % 0 hPa 0,0 l/m
26.07.2007 22:00 18,4 C 57 % 0 hPa 0,0 l/m
26.07.2007 23:00 17,8 C 62 % 0 hPa 0,0 l/m
27.07.2007 00:00 19,2 C 53 % 0 hPa 0,0 l/m
27.07.2007 01:00 19,0 C 56 % 0 hPa 0,0 l/m
27.07.2007 02:00 18,3 C 60 % 0 hPa 0,0 l/m
27.07.2007 03:00 17,6 C 62 % 0 hPa 0,0 l/m
27.07.2007 04:00 17,9 C 62 % 0 hPa 0,0 l/m
27.07.2007 05:00 17,3 C 71 % 0 hPa 0,0 l/m
27.07.2007 06:00 16,7 C 82 % 0 hPa 1,0 l/m
27.07.2007 07:00 16,5 C 91 % 0 hPa 0,0 l/m
27.07.2007 08:00 17,6 C 87 % 0 hPa 0,0 l/m
27.07.2007 09:00 19,0 C 72 % 0 hPa 0,0 l/m
27.07.2007 10:00 20,0 C 63 % 0 hPa 0,0 l/m
27.07.2007 11:00 22,2 C 48 % 0 hPa 0,0 l/m
27.07.2007 12:00 23,1 C 44 % 0 hPa 0,0 l/m
27.07.2007 13:00 23,6 C 41 % 0 hPa 0,0 l/m
27.07.2007 14:00 24,5 C 36 % 0 hPa 0,0 l/m
27.07.2007 15:00 25,2 C 33 % 0 hPa 0,0 l/m
27.07.2007 16:00 25,5 C 31 % 0 hPa 0,0 l/m
27.07.2007 17:00 25,5 C 32 % 0 hPa 0,0 l/m
27.07.2007 18:00 24,9 C 34 % 0 hPa 0,0 l/m
27.07.2007 19:00 24,4 C 36 % 0 hPa 0,0 l/m
27.07.2007 20:00 22,5 C 38 % 0 hPa 0,0 l/m
27.07.2007 21:00 20,4 C 44 % 0 hPa 0,0 l/m
27.07.2007 22:00 18,6 C 53 % 0 hPa 0,0 l/m
27.07.2007 23:00 17,3 C 63 % 0 hPa 0,0 l/m
28.07.2007 00:00 17,1 C 69 % 0 hPa 0,0 l/m
28.07.2007 01:00 17,4 C 70 % 0 hPa 0,0 l/m
28.07.2007 02:00 17,0 C 72 % 0 hPa 0,0 l/m
28.07.2007 03:00 15,8 C 77 % 0 hPa 0,0 l/m
28.07.2007 04:00 14,7 C 81 % 0 hPa 0,0 l/m
28.07.2007 05:00 14,1 C 85 % 0 hPa 0,0 l/m
28.07.2007 06:00 15,0 C 83 % 0 hPa 0,0 l/m
28.07.2007 07:00 16,0 C 82 % 0 hPa 0,0 l/m
28.07.2007 08:00 17,4 C 75 % 0 hPa 0,0 l/m
28.07.2007 09:00 19,6 C 59 % 0 hPa 0,0 l/m
28.07.2007 10:00 21,2 C 50 % 0 hPa 0,0 l/m
28.07.2007 11:00 21,9 C 48 % 0 hPa 0,0 l/m
28.07.2007 12:00 22,2 C 46 % 0 hPa 0,0 l/m
28.07.2007 13:00 21,7 C 46 % 0 hPa 0,0 l/m
28.07.2007 14:00 22,5 C 45 % 0 hPa 0,0 l/m
28.07.2007 15:00 23,5 C 40 % 0 hPa 0,0 l/m
28.07.2007 16:00 24,5 C 33 % 0 hPa 0,0 l/m
28.07.2007 17:00 24,8 C 32 % 0 hPa 0,0 l/m
28.07.2007 18:00 24,2 C 33 % 0 hPa 0,0 l/m
28.07.2007 19:00 22,7 C 36 % 0 hPa 0,0 l/m
28.07.2007 20:00 21,2 C 42 % 0 hPa 0,0 l/m
28.07.2007 21:00 19,7 C 55 % 0 hPa 0,0 l/m
28.07.2007 22:00 17,7 C 68 % 0 hPa 0,0 l/m
28.07.2007 23:00 17,6 C 65 % 0 hPa 0,0 l/m
29.07.2007 00:00 17,5 C 64 % 0 hPa 0,0 l/m
29.07.2007 01:00 17,4 C 68 % 0 hPa 1,0 l/m
29.07.2007 02:00 16,1 C 83 % 0 hPa 7,0 l/m
29.07.2007 03:00 15,9 C 89 % 0 hPa 1,0 l/m
29.07.2007 04:00 15,7 C 92 % 0 hPa 3,0 l/m
29.07.2007 05:00 15,4 C 93 % 0 hPa 0,0 l/m
29.07.2007 06:00 15,1 C 93 % 0 hPa 0,0 l/m
29.07.2007 07:00 15,7 C 95 % 0 hPa 0,0 l/m
29.07.2007 08:00 16,9 C 92 % 0 hPa 0,0 l/m
29.07.2007 09:00 18,3 C 77 % 0 hPa 0,0 l/m
29.07.2007 10:00 19,1 C 68 % 0 hPa 0,0 l/m
29.07.2007 11:00 19,7 C 62 % 0 hPa 0,0 l/m
29.07.2007 12:00 20,3 C 56 % 0 hPa 0,0 l/m
29.07.2007 13:00 21,6 C 49 % 0 hPa 0,0 l/m
29.07.2007 14:00 21,7 C 48 % 0 hPa 0,0 l/m
29.07.2007 15:00 21,0 C 54 % 0 hPa 0,0 l/m
29.07.2007 16:00 21,5 C 49 % 0 hPa 0,0 l/m
29.07.2007 17:00 21,2 C 49 % 0 hPa 0,0 l/m
29.07.2007 18:00 19,7 C 62 % 0 hPa 0,0 l/m
29.07.2007 19:00 19,3 C 62 % 0 hPa 0,0 l/m
29.07.2007 20:00 17,6 C 73 % 0 hPa 1,0 l/m
29.07.2007 21:00 16,1 C 87 % 0 hPa 2,0 l/m
29.07.2007 22:00 15,5 C 90 % 0 hPa 0,0 l/m
29.07.2007 23:00 15,0 C 88 % 0 hPa 2,0 l/m
Min-Datum _ 26.07.07 26.07.07 23.07.07 -
_ Min-Zeit 06:32 17:22 00:00 -
Minimum _ 10,8 C 22 % 0 hPa -
Max-Datum _ 23.07.07 24.07.07 23.07.07 29.07.07
_ Max-Zeit 14:20 00:50 00:00 02:20
Maximum _ 29,2 C 97 % 0 hPa 7,0 l/m
Durchschnitt _ 18,5 C 64 % 0 hPa #36,0 l/m

Durchschnitt Minimum Temp.18,0 C
Durchschnitt Maximum Temp.19,0 C